createdAt,value
2023-03-08T00:01:16.858Z,9.98
2023-03-08T00:03:43.787Z,10.23
2023-03-08T00:06:15.828Z,9.88
2023-03-08T00:08:42.891Z,15.00
2023-03-08T00:11:11.711Z,12.82
2023-03-08T00:13:38.233Z,11.82
2023-03-08T00:16:08.371Z,10.27
2023-03-08T00:18:35.892Z,8.63
2023-03-08T00:21:12.780Z,16.35
2023-03-08T00:23:39.767Z,8.73
2023-03-08T00:26:06.410Z,12.18
2023-03-08T00:28:32.957Z,9.52
2023-03-08T00:31:04.920Z,13.85
2023-03-08T00:33:33.019Z,11.32
2023-03-08T00:36:03.067Z,12.57
2023-03-08T00:38:32.139Z,14.77
2023-03-08T00:40:58.806Z,7.88
2023-03-08T00:43:25.874Z,12.32
2023-03-08T00:45:53.273Z,13.63
2023-03-08T00:48:20.706Z,10.38
2023-03-08T00:50:50.047Z,14.80
2023-03-08T00:53:16.566Z,9.73
2023-03-08T00:55:57.130Z,10.77
2023-03-08T00:58:25.779Z,8.40
2023-03-08T01:00:53.056Z,9.70
2023-03-08T01:03:21.809Z,13.77
2023-03-08T01:05:51.394Z,12.40
2023-03-08T01:08:19.045Z,11.40
2023-03-08T01:10:52.899Z,14.38
2023-03-08T01:13:20.526Z,12.73
2023-03-08T01:15:47.250Z,13.02
2023-03-08T01:18:13.787Z,12.23
2023-03-08T01:20:40.281Z,12.20
2023-03-08T01:23:07.206Z,13.18
2023-03-08T01:25:33.664Z,12.80
2023-03-08T01:28:00.225Z,10.52
2023-03-08T01:30:26.794Z,12.80
2023-03-08T01:32:53.490Z,12.88
2023-03-08T01:35:19.995Z,9.70
2023-03-08T01:37:46.620Z,10.93
2023-03-08T01:40:16.484Z,13.27
2023-03-08T01:42:43.002Z,9.75
2023-03-08T01:45:51.283Z,10.98
2023-03-08T01:48:18.655Z,14.02
2023-03-08T01:50:46.377Z,11.07
2023-03-08T01:53:13.421Z,11.23
2023-03-08T01:55:40.464Z,10.40
2023-03-08T01:58:07.018Z,16.38
2023-03-08T02:00:33.616Z,15.13
2023-03-08T02:03:04.072Z,12.55
2023-03-08T02:05:31.552Z,13.43
2023-03-08T02:07:58.041Z,14.68
2023-03-08T02:10:24.576Z,15.20
2023-03-08T02:12:51.832Z,14.85
2023-03-08T02:15:20.484Z,12.30
2023-03-08T02:17:47.314Z,12.93
2023-03-08T02:20:34.247Z,14.38
2023-03-08T02:23:15.476Z,16.13
2023-03-08T02:25:50.668Z,15.00
2023-03-08T02:28:17.408Z,16.08
2023-03-08T02:30:47.644Z,14.23
2023-03-08T02:33:14.137Z,15.98
2023-03-08T02:35:44.209Z,16.17
2023-03-08T02:38:13.082Z,14.13
2023-03-08T02:40:40.348Z,17.63
2023-03-08T02:43:07.514Z,18.35
2023-03-08T02:45:34.702Z,17.83
2023-03-08T02:48:02.610Z,14.95
2023-03-08T02:50:29.207Z,17.30
2023-03-08T02:52:55.679Z,19.63
2023-03-08T02:55:22.363Z,17.80
2023-03-08T02:57:50.915Z,17.38
2023-03-08T03:00:17.656Z,17.83
2023-03-08T03:02:44.146Z,16.98
2023-03-08T03:05:11.442Z,16.98
2023-03-08T03:07:39.776Z,16.02
2023-03-08T03:10:09.682Z,19.30
2023-03-08T03:12:39.632Z,17.77
2023-03-08T03:15:07.459Z,15.63
2023-03-08T03:17:34.533Z,18.98
2023-03-08T03:20:01.055Z,15.00
2023-03-08T03:22:28.164Z,17.73
2023-03-08T03:24:54.608Z,16.77
2023-03-08T03:27:21.093Z,18.08
2023-03-08T03:29:47.596Z,19.10
2023-03-08T03:32:14.171Z,22.95
2023-03-08T03:34:40.741Z,21.05
2023-03-08T03:37:07.315Z,17.85
2023-03-08T03:39:40.095Z,16.20
2023-03-08T03:42:07.366Z,16.85
2023-03-08T03:44:33.857Z,18.70
2023-03-08T03:47:00.374Z,15.77
2023-03-08T03:49:27.106Z,17.80
2023-03-08T03:51:53.610Z,15.75
2023-03-08T03:54:20.087Z,20.08
2023-03-08T03:56:49.662Z,20.63
2023-03-08T03:59:16.243Z,28.88
2023-03-08T04:01:42.749Z,19.23
2023-03-08T04:04:10.636Z,18.45
2023-03-08T04:06:37.202Z,20.25
2023-03-08T04:09:07.267Z,20.15
2023-03-08T04:11:36.536Z,20.08
2023-03-08T04:14:03.745Z,18.30
2023-03-08T04:16:32.407Z,20.42
2023-03-08T04:19:05.219Z,20.75
2023-03-08T04:21:32.162Z,22.90
2023-03-08T04:24:02.386Z,22.73
2023-03-08T04:26:28.881Z,16.70
2023-03-08T04:28:55.725Z,23.05
2023-03-08T04:31:28.869Z,22.58
2023-03-08T04:33:55.979Z,21.15
2023-03-08T04:36:23.028Z,21.00
2023-03-08T04:38:50.195Z,26.80
2023-03-08T04:41:17.129Z,24.83
2023-03-08T04:43:49.545Z,22.77
2023-03-08T04:46:17.897Z,21.75
2023-03-08T04:48:44.950Z,20.92
2023-03-08T04:51:14.201Z,21.63
2023-03-08T04:53:41.730Z,19.95
2023-03-08T04:56:08.899Z,21.52
2023-03-08T04:58:36.653Z,19.25
2023-03-08T05:01:20.395Z,20.73
2023-03-08T05:03:50.186Z,21.90
2023-03-08T05:06:17.711Z,23.20
2023-03-08T05:08:44.844Z,22.17
2023-03-08T05:11:20.172Z,21.83
2023-03-08T05:13:47.139Z,23.20
2023-03-08T05:16:14.074Z,25.98
2023-03-08T05:18:40.909Z,22.95
2023-03-08T05:21:12.605Z,20.83
2023-03-08T05:23:39.183Z,20.92
2023-03-08T05:26:07.420Z,21.02
2023-03-08T05:28:37.102Z,22.15
2023-03-08T05:31:13.352Z,18.30
2023-03-08T05:33:40.902Z,20.80
2023-03-08T05:36:08.807Z,22.83
2023-03-08T05:38:35.368Z,20.20
2023-03-08T05:41:03.712Z,21.92
2023-03-08T05:43:30.481Z,20.17
2023-03-08T05:46:17.723Z,24.35
2023-03-08T05:48:45.189Z,21.75
2023-03-08T05:51:16.952Z,24.35
2023-03-08T05:53:44.439Z,21.70
2023-03-08T05:56:19.309Z,20.63
2023-03-08T05:58:48.041Z,20.33
2023-03-08T06:01:19.120Z,22.80
2023-03-08T06:03:48.228Z,20.95
2023-03-08T06:06:14.829Z,21.13
2023-03-08T06:08:41.806Z,22.13
2023-03-08T06:11:08.767Z,23.25
2023-03-08T06:13:35.842Z,23.38
2023-03-08T06:16:03.931Z,26.33
2023-03-08T06:18:30.839Z,21.23
2023-03-08T06:21:01.606Z,20.95
2023-03-08T06:23:29.853Z,22.90
2023-03-08T06:25:56.946Z,23.55
2023-03-08T06:28:24.282Z,22.25
2023-03-08T06:30:51.101Z,22.42
2023-03-08T06:33:19.267Z,25.50
2023-03-08T06:35:59.510Z,21.05
2023-03-08T06:38:29.458Z,20.88
2023-03-08T06:40:56.546Z,20.92
2023-03-08T06:43:23.184Z,22.55
2023-03-08T06:45:49.792Z,23.58
2023-03-08T06:48:17.485Z,23.25
2023-03-08T06:50:44.061Z,22.50
2023-03-08T06:53:11.308Z,24.40
2023-03-08T06:55:39.122Z,21.30
2023-03-08T06:58:06.589Z,24.35
2023-03-08T07:00:33.700Z,24.90
2023-03-08T07:03:00.762Z,22.13
2023-03-08T07:05:27.863Z,23.95
2023-03-08T07:07:54.370Z,26.27
2023-03-08T07:10:22.165Z,23.90
2023-03-08T07:12:51.298Z,26.08
2023-03-08T07:15:20.796Z,29.08
2023-03-08T07:17:48.866Z,25.77
2023-03-08T07:20:17.495Z,29.23
2023-03-08T07:22:44.938Z,32.42
2023-03-08T07:25:13.224Z,30.23
2023-03-08T07:27:39.740Z,29.05
2023-03-08T07:30:10.776Z,28.48
2023-03-08T07:32:40.301Z,32.53
2023-03-08T07:35:09.000Z,32.65
2023-03-08T07:37:35.535Z,28.65
2023-03-08T07:40:02.538Z,28.10
2023-03-08T07:42:29.142Z,24.75
2023-03-08T07:44:57.654Z,31.42
2023-03-08T07:47:24.123Z,31.90
2023-03-08T07:49:53.813Z,27.85
2023-03-08T07:52:20.323Z,30.35
2023-03-08T07:54:49.583Z,29.42
2023-03-08T07:57:16.146Z,29.70
2023-03-08T07:59:42.612Z,29.35
2023-03-08T08:02:13.726Z,26.45
2023-03-08T08:04:42.861Z,29.50
2023-03-08T08:07:15.815Z,30.48
2023-03-08T08:09:42.720Z,25.42
2023-03-08T08:12:10.161Z,39.25
2023-03-08T08:14:36.652Z,29.30
2023-03-08T08:17:06.113Z,21.73
2023-03-08T08:19:32.670Z,24.75
2023-03-08T08:22:00.308Z,26.75
2023-03-08T08:24:27.583Z,21.88
2023-03-08T08:26:54.298Z,22.50
2023-03-08T08:29:20.831Z,22.38
2023-03-08T08:31:47.401Z,20.42
2023-03-08T08:34:14.395Z,24.38
2023-03-08T08:36:40.987Z,24.83
2023-03-08T08:39:07.532Z,24.45
2023-03-08T08:41:34.099Z,22.95
2023-03-08T08:44:00.784Z,29.05
2023-03-08T08:46:28.105Z,20.20
2023-03-08T08:48:56.303Z,24.02
2023-03-08T08:51:22.863Z,22.33
2023-03-08T08:53:49.828Z,24.05
2023-03-08T08:56:27.897Z,22.85
2023-03-08T08:59:00.469Z,21.92
2023-03-08T09:01:32.990Z,26.67
2023-03-08T09:04:00.387Z,23.60
2023-03-08T09:06:28.368Z,22.63
2023-03-08T09:08:57.936Z,23.58
2023-03-08T09:11:26.510Z,22.88
2023-03-08T09:13:53.916Z,26.67
2023-03-08T09:16:23.775Z,25.88
2023-03-08T09:18:50.538Z,23.73
2023-03-08T09:21:17.700Z,24.02
2023-03-08T09:23:44.583Z,22.67
2023-03-08T09:26:11.283Z,26.55
2023-03-08T09:28:40.634Z,20.88
2023-03-08T09:31:18.671Z,26.10
2023-03-08T09:33:48.697Z,19.92
2023-03-08T09:36:16.507Z,17.77
2023-03-08T09:38:43.147Z,15.85
2023-03-08T09:41:41.817Z,14.65
2023-03-08T09:44:43.810Z,12.15
2023-03-08T09:47:11.395Z,12.50
2023-03-08T09:49:39.071Z,10.25
2023-03-08T09:52:26.754Z,20.48
2023-03-08T09:54:53.828Z,22.58
2023-03-08T09:57:26.301Z,23.70
2023-03-08T09:59:52.805Z,20.77
2023-03-08T10:02:31.421Z,25.02
2023-03-08T10:05:16.124Z,22.08
2023-03-08T10:08:00.811Z,20.15
2023-03-08T10:10:30.287Z,21.35
2023-03-08T10:13:12.051Z,24.45
2023-03-08T10:15:44.150Z,26.38
2023-03-08T10:18:24.196Z,24.35
2023-03-08T10:20:51.084Z,19.23
2023-03-08T10:23:23.156Z,20.90
2023-03-08T10:25:50.932Z,19.90
2023-03-08T10:28:23.522Z,19.30
2023-03-08T10:30:52.056Z,19.77
2023-03-08T10:33:20.884Z,18.38
2023-03-08T10:36:04.612Z,17.65
2023-03-08T10:38:35.314Z,19.15
2023-03-08T10:41:13.005Z,17.67
2023-03-08T10:43:44.658Z,18.27
2023-03-08T10:46:20.594Z,21.90
2023-03-08T10:48:47.924Z,16.65
2023-03-08T10:51:23.627Z,18.90
2023-03-08T10:54:02.666Z,15.20
2023-03-08T10:56:51.330Z,13.98
2023-03-08T10:59:34.453Z,15.68
2023-03-08T11:02:16.550Z,13.55
2023-03-08T11:04:57.840Z,11.55
2023-03-08T11:07:30.921Z,10.73
2023-03-08T11:10:32.101Z,11.95
2023-03-08T11:13:37.378Z,7.50
2023-03-08T11:16:12.163Z,9.90
2023-03-08T11:18:51.663Z,9.57
2023-03-08T11:21:56.432Z,11.43
2023-03-08T11:24:52.966Z,15.13
2023-03-08T11:27:53.757Z,21.13
2023-03-08T11:30:20.201Z,14.10
2023-03-08T11:33:00.667Z,14.45
2023-03-08T11:35:55.734Z,14.93
2023-03-08T11:38:24.352Z,17.52
2023-03-08T11:40:50.809Z,16.00
2023-03-08T11:43:47.447Z,11.40
2023-03-08T11:46:51.485Z,14.05
2023-03-08T11:49:24.002Z,13.88
2023-03-08T11:52:32.759Z,11.70
2023-03-08T11:55:20.507Z,9.90
2023-03-08T11:57:54.700Z,12.13
2023-03-08T12:00:38.145Z,13.63
2023-03-08T12:03:36.884Z,6.68
2023-03-08T12:06:29.182Z,11.65
2023-03-08T12:09:08.388Z,9.98
2023-03-08T12:11:41.751Z,10.38
2023-03-08T12:14:24.048Z,10.05
2023-03-08T12:16:57.040Z,8.48
2023-03-08T12:19:35.651Z,8.55
2023-03-08T12:22:23.854Z,7.47
2023-03-08T12:25:07.660Z,8.45
2023-03-08T12:28:04.811Z,11.65
2023-03-08T12:31:21.445Z,8.02
2023-03-08T12:33:54.082Z,9.13
2023-03-08T12:36:22.613Z,9.18
2023-03-08T12:38:56.557Z,8.85
2023-03-08T12:41:27.093Z,9.70
2023-03-08T12:44:22.847Z,10.10
2023-03-08T12:47:02.289Z,11.57
2023-03-08T12:49:39.420Z,13.80
2023-03-08T12:52:18.299Z,11.45
2023-03-08T12:55:18.939Z,12.10
2023-03-08T12:57:47.715Z,11.32
2023-03-08T13:00:20.062Z,10.65
2023-03-08T13:02:46.788Z,9.75
2023-03-08T13:05:30.483Z,14.52
2023-03-08T13:08:16.222Z,11.52
2023-03-08T13:10:48.957Z,9.77
2023-03-08T13:13:37.099Z,9.65
2023-03-08T13:16:32.565Z,10.65
2023-03-08T13:19:14.733Z,12.02
2023-03-08T13:21:57.510Z,10.02
2023-03-08T13:24:43.304Z,12.57
2023-03-08T13:27:36.845Z,12.32
2023-03-08T13:30:23.607Z,13.90
2023-03-08T13:32:50.699Z,13.93
2023-03-08T13:35:18.512Z,14.85
2023-03-08T13:37:56.467Z,14.57
2023-03-08T13:40:24.570Z,12.35
2023-03-08T13:42:59.326Z,16.63
2023-03-08T13:45:26.608Z,14.25
2023-03-08T13:47:55.521Z,14.55
2023-03-08T13:50:36.429Z,15.55
2023-03-08T13:53:07.515Z,16.33
2023-03-08T13:55:38.995Z,13.18
2023-03-08T13:58:07.601Z,15.27
2023-03-08T14:00:35.780Z,13.18
2023-03-08T14:03:06.589Z,14.68
2023-03-08T14:05:44.118Z,13.70
2023-03-08T14:08:24.947Z,14.07
2023-03-08T14:10:57.901Z,10.80
2023-03-08T14:13:32.593Z,11.30
2023-03-08T14:16:02.081Z,12.45
2023-03-08T14:18:35.970Z,12.05
2023-03-08T14:21:26.884Z,11.70
2023-03-08T14:23:59.685Z,11.98
2023-03-08T14:26:38.521Z,12.90
2023-03-08T14:29:22.911Z,14.00
2023-03-08T14:32:10.551Z,10.13
2023-03-08T14:34:48.404Z,9.45
2023-03-08T14:37:30.239Z,10.63
2023-03-08T14:40:19.449Z,11.10
2023-03-08T14:42:48.561Z,10.55
2023-03-08T14:45:28.811Z,9.18
2023-03-08T14:48:17.721Z,6.03
2023-03-08T14:51:02.558Z,6.75
2023-03-08T14:53:30.977Z,10.77
2023-03-08T14:55:59.546Z,6.63
2023-03-08T14:58:33.660Z,6.75
2023-03-08T15:01:02.092Z,8.95
2023-03-08T15:03:32.433Z,8.93
2023-03-08T15:06:06.020Z,8.13
2023-03-08T15:08:35.307Z,7.65
2023-03-08T15:11:01.781Z,7.65
2023-03-08T15:13:28.313Z,8.23
2023-03-08T15:15:54.785Z,7.57
2023-03-08T15:18:21.498Z,8.30
2023-03-08T15:20:49.757Z,6.10
2023-03-08T15:23:22.232Z,8.20
2023-03-08T15:25:49.168Z,7.03
2023-03-08T15:28:17.968Z,8.27
2023-03-08T15:30:44.883Z,7.35
2023-03-08T15:33:11.646Z,5.97
2023-03-08T15:35:39.423Z,6.32
2023-03-08T15:38:06.238Z,5.95
2023-03-08T15:40:34.171Z,6.35
2023-03-08T15:43:01.358Z,5.97
2023-03-08T15:45:28.703Z,7.68
2023-03-08T15:48:00.357Z,8.73
2023-03-08T15:50:28.015Z,6.90
2023-03-08T15:52:55.645Z,7.15
2023-03-08T15:55:24.542Z,8.23
2023-03-08T15:57:51.073Z,9.30
2023-03-08T16:00:19.314Z,8.50
2023-03-08T16:02:46.466Z,8.45
2023-03-08T16:05:14.541Z,11.68
2023-03-08T16:07:41.690Z,9.15
2023-03-08T16:10:14.339Z,7.95
2023-03-08T16:12:41.461Z,8.88
2023-03-08T16:15:08.507Z,9.05
2023-03-08T16:17:35.424Z,10.02
2023-03-08T16:20:05.720Z,9.13
2023-03-08T16:22:33.572Z,8.38
2023-03-08T16:25:00.877Z,10.48
2023-03-08T16:27:30.108Z,11.45
2023-03-08T16:29:56.884Z,10.18
2023-03-08T16:32:23.399Z,11.43
2023-03-08T16:34:51.135Z,11.93
2023-03-08T16:37:21.192Z,12.48
2023-03-08T16:39:51.058Z,15.27
2023-03-08T16:42:18.918Z,13.93
2023-03-08T16:44:50.710Z,16.77
2023-03-08T16:47:17.739Z,14.23
2023-03-08T16:49:44.441Z,14.45
2023-03-08T16:52:13.743Z,15.07
2023-03-08T16:54:43.491Z,17.55
2023-03-08T16:57:19.083Z,18.95
2023-03-08T16:59:47.180Z,16.77
2023-03-08T17:02:16.968Z,17.50
2023-03-08T17:04:43.885Z,18.00
2023-03-08T17:07:11.297Z,20.90
2023-03-08T17:09:39.077Z,17.80
2023-03-08T17:12:07.165Z,17.38
2023-03-08T17:14:34.805Z,16.77
2023-03-08T17:17:01.864Z,16.20
2023-03-08T17:19:28.481Z,15.77
2023-03-08T17:21:55.711Z,17.95
2023-03-08T17:24:22.701Z,17.88
2023-03-08T17:26:52.748Z,18.73
2023-03-08T17:29:19.693Z,18.73
2023-03-08T17:31:46.587Z,19.35
2023-03-08T17:34:13.711Z,17.92
2023-03-08T17:36:40.885Z,18.10
2023-03-08T17:39:07.801Z,20.75
2023-03-08T17:41:34.434Z,21.63
2023-03-08T17:44:01.170Z,19.58
2023-03-08T17:46:27.958Z,19.42
2023-03-08T17:48:55.289Z,22.20
2023-03-08T17:51:27.677Z,25.33
2023-03-08T17:53:54.665Z,22.90
2023-03-08T17:56:26.339Z,25.98
2023-03-08T17:58:53.171Z,24.17
2023-03-08T18:01:22.772Z,25.45
2023-03-08T18:03:49.644Z,29.20
2023-03-08T18:06:34.030Z,26.35
2023-03-08T18:09:03.919Z,27.60
2023-03-08T18:11:30.695Z,28.77
2023-03-08T18:13:57.248Z,26.38
2023-03-08T18:16:23.983Z,30.25
2023-03-08T18:18:53.471Z,30.90
2023-03-08T18:21:22.944Z,32.15
2023-03-08T18:23:49.562Z,33.78
2023-03-08T18:26:17.476Z,37.35
2023-03-08T18:28:43.936Z,38.42
2023-03-08T18:31:14.652Z,49.10
2023-03-08T18:33:41.174Z,51.03
2023-03-08T18:36:08.320Z,51.35
2023-03-08T18:38:38.595Z,50.70
2023-03-08T18:41:31.656Z,53.35
2023-03-08T18:43:59.339Z,53.70
2023-03-08T18:46:28.895Z,49.03
2023-03-08T18:49:00.961Z,50.20
2023-03-08T18:53:55.418Z,47.60
2023-03-08T18:56:23.169Z,49.05
2023-03-08T18:58:49.726Z,49.80
2023-03-08T19:01:16.984Z,45.75
2023-03-08T19:03:45.087Z,48.35
2023-03-08T19:06:13.059Z,48.13
2023-03-08T19:08:40.110Z,45.40
2023-03-08T19:11:11.200Z,40.70
2023-03-08T19:13:37.679Z,42.83
2023-03-08T19:16:04.639Z,44.80
2023-03-08T19:18:31.143Z,45.72
2023-03-08T19:20:57.592Z,43.80
2023-03-08T19:23:24.130Z,46.47
2023-03-08T19:26:08.900Z,46.05
2023-03-08T19:28:35.359Z,44.55
2023-03-08T19:31:01.826Z,43.90
2023-03-08T19:33:31.276Z,47.55
2023-03-08T19:36:00.264Z,44.47
2023-03-08T19:38:26.857Z,41.13
2023-03-08T19:40:53.334Z,43.30
2023-03-08T19:43:19.840Z,43.72
2023-03-08T19:45:50.193Z,46.58
2023-03-08T19:48:16.831Z,40.60
2023-03-08T19:50:46.500Z,42.92
2023-03-08T19:53:13.069Z,40.38
2023-03-08T19:55:51.401Z,42.72
2023-03-08T19:58:18.715Z,38.15
2023-03-08T20:00:46.010Z,42.83
2023-03-08T20:03:14.711Z,37.60
2023-03-08T20:05:43.980Z,39.83
2023-03-08T20:08:11.228Z,42.38
2023-03-08T20:10:37.958Z,35.97
2023-03-08T20:13:06.527Z,33.03
2023-03-08T20:15:33.092Z,33.75
2023-03-08T20:17:59.622Z,32.85
2023-03-08T20:20:26.787Z,31.05
2023-03-08T20:22:53.280Z,28.33
2023-03-08T20:25:19.783Z,27.83
2023-03-08T20:27:46.314Z,27.60
2023-03-08T20:30:13.657Z,26.60
2023-03-08T20:32:40.374Z,28.05
2023-03-08T20:35:11.553Z,28.90
2023-03-08T20:37:38.070Z,30.50
2023-03-08T20:40:06.583Z,27.17
2023-03-08T20:42:34.975Z,32.42
2023-03-08T20:45:01.598Z,29.55
2023-03-08T20:47:28.236Z,31.88
2023-03-08T20:49:54.721Z,32.13
2023-03-08T20:52:21.359Z,30.25
2023-03-08T20:54:51.032Z,33.45
2023-03-08T20:57:18.107Z,30.27
2023-03-08T20:59:44.592Z,32.00
2023-03-08T21:02:12.357Z,28.75
2023-03-08T21:04:39.066Z,30.70
2023-03-08T21:07:05.932Z,29.58
2023-03-08T21:09:32.936Z,30.67
2023-03-08T21:11:59.492Z,30.33
2023-03-08T21:14:33.222Z,33.58
2023-03-08T21:17:02.881Z,29.23
2023-03-08T21:19:29.353Z,27.55
2023-03-08T21:21:55.801Z,28.20
2023-03-08T21:24:25.481Z,26.20
2023-03-08T21:26:52.271Z,28.23
2023-03-08T21:29:21.047Z,27.98
2023-03-08T21:31:52.752Z,28.33
2023-03-08T21:34:20.366Z,28.23
2023-03-08T21:36:47.123Z,26.90
2023-03-08T21:39:14.543Z,32.58
2023-03-08T21:41:43.970Z,32.15
2023-03-08T21:44:18.738Z,30.73
2023-03-08T21:46:46.588Z,29.58
2023-03-08T21:49:24.998Z,35.38
2023-03-08T21:51:53.262Z,35.33
2023-03-08T21:54:26.614Z,32.08
2023-03-08T21:56:53.188Z,36.30
2023-03-08T21:59:23.922Z,39.05
2023-03-08T22:01:51.080Z,43.45
2023-03-08T22:04:17.684Z,35.97
2023-03-08T22:06:44.171Z,44.72
2023-03-08T22:09:10.874Z,37.28
2023-03-08T22:11:40.879Z,39.22
2023-03-08T22:14:08.080Z,36.22
2023-03-08T22:16:37.848Z,36.05
2023-03-08T22:19:07.311Z,39.03
2023-03-08T22:21:33.832Z,41.88
2023-03-08T22:24:03.970Z,43.45
2023-03-08T22:26:34.352Z,34.90
2023-03-08T22:29:01.109Z,37.38
2023-03-08T22:31:29.667Z,33.60
2023-03-08T22:33:56.722Z,34.95
2023-03-08T22:36:24.047Z,43.08
2023-03-08T22:38:50.688Z,37.20
2023-03-08T22:41:27.925Z,37.50
2023-03-08T22:43:57.633Z,32.25
2023-03-08T22:46:26.594Z,36.60
2023-03-08T22:48:54.377Z,37.10
2023-03-08T22:51:22.253Z,36.45
2023-03-08T22:53:49.598Z,34.58
2023-03-08T22:56:33.005Z,37.08
2023-03-08T22:59:00.938Z,34.38
2023-03-08T23:01:29.497Z,30.92
2023-03-08T23:04:01.779Z,33.00
2023-03-08T23:06:29.743Z,33.05
2023-03-08T23:09:01.534Z,30.17
2023-03-08T23:13:54.917Z,32.10
2023-03-08T23:16:21.685Z,30.52
2023-03-08T23:18:49.861Z,25.85
2023-03-08T23:21:18.923Z,34.58
2023-03-08T23:23:45.732Z,32.22
2023-03-08T23:26:18.428Z,29.58
2023-03-08T23:28:45.199Z,29.73
2023-03-08T23:31:15.100Z,27.85
2023-03-08T23:33:42.727Z,29.33
2023-03-08T23:36:11.358Z,27.75
2023-03-08T23:38:37.902Z,28.67
2023-03-08T23:41:09.214Z,26.10
2023-03-08T23:43:37.170Z,21.60
2023-03-08T23:46:12.377Z,23.17
2023-03-08T23:48:39.356Z,29.17
2023-03-08T23:51:08.464Z,22.75
2023-03-08T23:53:42.020Z,22.40
2023-03-08T23:56:17.895Z,24.95
2023-03-08T23:58:47.861Z,25.17
